Terminal Aerodrome Forecast
Issued by NWS

Home | Current Version | Previous Version | Text Only | Print | Product List | Glossary On
Versions: 1 2 3 4 5 6 7 8 9 10 11 12 13 14
745
FTUS45 KABQ 260023 AAA
TAFGUP
TAF AMD
KGUP 260023Z 2600/2624 VRB04KT P6SM FEW250
     FM261600 33010KT P6SM SCT250
     FM262100 35010KT P6SM SKC=

USA.gov is the U.S. government's official web portal to all federal, state and local government web resources and services.